Time;durP1;ratioP1;P1;durP2;ratioP2;P2;SDS_P1;SDS_P2;PMS_P1;PMS_P2;Temp;Humidity;BMP_temperature;BMP_pressure;BME280_temperature;BME280_humidity;BME280_pressure;Samples;Min_cycle;Max_cycle;Signal;HPM_P1;HPM_P2
2022/12/14 00:00:53;;;;;;;41.40;20.77;;;-1.20;99.90;;;;;;5080584;28;20047;-71
2022/12/14 00:03:19;;;;;;;43.58;20.42;;;-1.20;99.90;;;;;;5083383;28;20102;-69
2022/12/14 00:05:45;;;;;;;43.42;19.88;;;-1.20;99.90;;;;;;5072094;28;20085;-69
2022/12/14 00:08:13;;;;;;;41.67;19.85;;;-1.20;99.90;;;;;;5071846;28;20183;-69
2022/12/14 00:10:40;;;;;;;42.42;19.17;;;-1.20;99.90;;;;;;5079973;28;20031;-69
2022/12/14 00:13:06;;;;;;;42.78;19.55;;;-1.20;99.90;;;;;;5091732;28;20116;-69
2022/12/14 00:15:32;;;;;;;35.90;18.60;;;-1.20;99.90;;;;;;5070784;28;20029;-70
2022/12/14 00:17:58;;;;;;;41.55;19.60;;;-1.20;99.90;;;;;;5087481;28;20028;-70
2022/12/14 00:20:24;;;;;;;42.15;19.75;;;-1.20;99.90;;;;;;5088003;28;20036;-70
2022/12/14 00:22:50;;;;;;;40.22;19.25;;;-1.20;99.90;;;;;;5076345;28;20024;-70
2022/12/14 00:25:16;;;;;;;43.13;19.35;;;-1.20;99.90;;;;;;5080156;28;20044;-69
2022/12/14 00:27:45;;;;;;;42.08;20.08;;;-1.20;99.90;;;;;;5077165;28;20095;-70
2022/12/14 00:30:17;;;;;;;41.78;19.38;;;-1.20;99.90;;;;;;5073315;28;20023;-70
2022/12/14 00:32:43;;;;;;;40.15;18.85;;;-1.20;99.90;;;;;;5090538;28;20020;-71
2022/12/14 00:35:11;;;;;;;42.72;18.95;;;-1.20;99.90;;;;;;5091315;28;20043;-70
2022/12/14 00:37:37;;;;;;;41.75;19.05;;;-1.20;99.90;;;;;;5082854;28;20056;-70
2022/12/14 00:40:05;;;;;;;40.22;19.00;;;-1.20;99.90;;;;;;5084755;28;20033;-70
2022/12/14 00:42:31;;;;;;;40.03;18.40;;;-1.20;99.90;;;;;;5090604;28;20279;-70
2022/12/14 00:44:57;;;;;;;41.33;18.33;;;-1.20;99.90;;;;;;5091459;28;20042;-70
2022/12/14 00:47:23;;;;;;;34.65;18.10;;;-1.20;99.90;;;;;;5091660;28;20044;-71
2022/12/14 00:49:48;;;;;;;40.90;18.13;;;-1.20;99.90;;;;;;5092216;28;20016;-71
2022/12/14 00:52:14;;;;;;;40.00;17.80;;;-1.20;99.90;;;;;;5079914;28;20055;-70
2022/12/14 00:54:40;;;;;;;41.92;18.65;;;-1.20;99.90;;;;;;5090197;28;20054;-72
2022/12/14 00:57:05;;;;;;;37.67;17.33;;;-1.20;99.90;;;;;;5088067;28;20037;-69
2022/12/14 00:59:31;;;;;;;38.85;18.45;;;-1.20;99.90;;;;;;5080268;28;20017;-69
2022/12/14 01:01:57;;;;;;;38.20;17.02;;;-1.20;99.90;;;;;;5084088;28;20039;-69
2022/12/14 01:04:23;;;;;;;39.95;18.25;;;-1.20;99.90;;;;;;5084728;28;20038;-69
2022/12/14 01:06:50;;;;;;;37.08;17.63;;;-1.20;99.90;;;;;;5090668;28;20027;-69
2022/12/14 01:09:17;;;;;;;37.60;18.50;;;-1.30;99.90;;;;;;5091354;28;20021;-69
2022/12/14 01:11:43;;;;;;;40.00;18.55;;;-1.30;99.90;;;;;;5068979;28;20044;-69
2022/12/14 01:14:11;;;;;;;36.50;17.80;;;-1.30;99.90;;;;;;5089307;28;20017;-69
2022/12/14 01:16:38;;;;;;;39.10;17.70;;;-1.30;99.90;;;;;;5073523;28;20009;-70
2022/12/14 01:19:04;;;;;;;39.60;17.85;;;-1.30;99.90;;;;;;5078565;28;20024;-71
2022/12/14 01:21:30;;;;;;;39.53;18.02;;;-1.30;99.90;;;;;;5066253;28;20028;-69
2022/12/14 01:23:59;;;;;;;36.20;17.45;;;-1.30;99.90;;;;;;5089059;28;20032;-70
2022/12/14 01:26:26;;;;;;;37.58;17.27;;;-1.30;99.90;;;;;;5089008;28;19997;-70
2022/12/14 01:28:57;;;;;;;39.38;17.40;;;-1.30;99.90;;;;;;5090532;28;20129;-70
2022/12/14 01:31:27;;;;;;;37.63;17.48;;;-1.30;99.90;;;;;;5087072;28;20044;-71
2022/12/14 01:33:53;;;;;;;38.25;18.00;;;-1.30;99.90;;;;;;5089372;28;20096;-69
2022/12/14 01:36:21;;;;;;;37.80;17.92;;;-1.30;99.90;;;;;;5083176;28;20054;-70
2022/12/14 01:38:51;;;;;;;34.78;16.63;;;-1.30;99.90;;;;;;5075375;28;20021;-69
2022/12/14 01:41:31;;;;;;;33.13;16.70;;;-1.30;99.90;;;;;;5077306;28;20028;-71
2022/12/14 01:43:59;;;;;;;37.22;16.55;;;-1.30;99.90;;;;;;5090910;28;20021;-69
2022/12/14 01:46:33;;;;;;;37.15;17.13;;;-1.30;99.90;;;;;;5073694;28;20055;-69
2022/12/14 01:49:15;;;;;;;36.55;16.77;;;-1.20;99.90;;;;;;5084038;28;20301;-70
2022/12/14 01:51:47;;;;;;;33.95;16.95;;;-1.30;99.90;;;;;;5080008;28;20040;-69
2022/12/14 01:54:14;;;;;;;32.97;15.43;;;-1.30;99.90;;;;;;5082213;28;20060;-69
2022/12/14 01:56:43;;;;;;;37.45;16.90;;;-1.30;99.90;;;;;;5077333;28;20029;-69
2022/12/14 01:59:15;;;;;;;35.58;17.08;;;-1.30;99.90;;;;;;5089843;28;20036;-68
2022/12/14 02:01:41;;;;;;;35.00;16.10;;;-1.30;99.90;;;;;;5088538;28;20088;-69
2022/12/14 02:04:09;;;;;;;30.45;15.90;;;-1.30;99.90;;;;;;5090033;28;20055;-69
2022/12/14 02:06:38;;;;;;;32.35;15.02;;;-1.30;99.90;;;;;;5080409;28;20020;-69
2022/12/14 02:09:10;;;;;;;31.58;16.15;;;-1.30;99.90;;;;;;5089239;28;20047;-69
2022/12/14 02:11:49;;;;;;;31.95;15.40;;;-1.40;99.90;;;;;;5077154;28;20058;-68
2022/12/14 02:14:14;;;;;;;31.90;15.05;;;-1.40;99.90;;;;;;5069070;28;20036;-70
2022/12/14 02:16:40;;;;;;;31.77;15.45;;;-1.40;99.90;;;;;;5082520;28;20024;-69
2022/12/14 02:19:06;;;;;;;30.67;15.27;;;-1.40;99.90;;;;;;5077499;28;20333;-70
2022/12/14 02:22:09;;;;;;;32.47;16.02;;;-1.40;99.90;;;;;;5087174;28;20021;-69
2022/12/14 02:25:12;;;;;;;32.35;14.85;;;-1.40;99.90;;;;;;5070533;28;20067;-70
2022/12/14 02:28:03;;;;;;;35.08;15.55;;;-1.40;99.90;;;;;;5084529;28;20025;-70
2022/12/14 02:30:36;;;;;;;31.33;14.63;;;-1.40;99.90;;;;;;5086505;28;20036;-69
2022/12/14 02:33:19;;;;;;;31.17;14.63;;;-1.40;99.90;;;;;;5080592;28;20067;-69
2022/12/14 02:36:00;;;;;;;32.80;15.25;;;-1.40;99.90;;;;;;5066000;28;20052;-69
2022/12/14 02:38:46;;;;;;;30.27;15.10;;;-1.40;99.90;;;;;;5086052;28;20029;-69
2022/12/14 02:41:37;;;;;;;30.98;14.30;;;-1.40;99.90;;;;;;5078870;28;20059;-69
2022/12/14 02:44:29;;;;;;;31.02;14.82;;;-1.40;99.90;;;;;;5087030;28;20056;-70
2022/12/14 02:47:09;;;;;;;32.25;15.07;;;-1.50;99.90;;;;;;5093128;28;20032;-70
2022/12/14 02:49:55;;;;;;;30.90;15.15;;;-1.40;99.90;;;;;;5097493;28;20024;-70
2022/12/14 02:52:23;;;;;;;;;;;-1.50;99.90;;;;;;5087663;28;20009;-69
2022/12/14 02:55:09;;;;;;;31.08;14.68;;;-1.50;99.90;;;;;;5091876;28;19908;-70
2022/12/14 02:58:05;;;;;;;31.40;15.15;;;-1.50;99.90;;;;;;5085679;28;20067;-69
2022/12/14 03:00:33;;;;;;;32.63;15.38;;;-1.50;99.90;;;;;;5090684;28;20032;-70
2022/12/14 03:03:00;;;;;;;26.00;13.32;;;-1.50;99.90;;;;;;5076190;28;20147;-69
2022/12/14 03:05:26;;;;;;;31.50;14.77;;;-1.60;99.90;;;;;;5072089;28;20025;-69
2022/12/14 03:08:09;;;;;;;30.67;14.35;;;-1.60;99.90;;;;;;5071954;28;20096;-69
2022/12/14 03:10:51;;;;;;;28.10;14.75;;;-1.60;99.90;;;;;;5062793;28;20076;-70
2022/12/14 03:13:28;;;;;;;31.83;15.13;;;-1.60;99.90;;;;;;5071453;28;20033;-69
2022/12/14 03:16:00;;;;;;;31.85;15.25;;;-1.60;99.90;;;;;;5052853;28;20025;-69
2022/12/14 03:18:29;;;;;;;26.35;13.65;;;-1.60;99.90;;;;;;5064646;28;20048;-69
2022/12/14 03:20:57;;;;;;;34.00;15.02;;;-1.70;99.90;;;;;;5069015;28;20382;-70
2022/12/14 03:23:28;;;;;;;31.75;14.40;;;-1.70;99.90;;;;;;5070768;28;20039;-69
2022/12/14 03:26:16;;;;;;;31.58;14.77;;;-1.70;99.90;;;;;;5062013;28;20038;-70
2022/12/14 03:28:47;;;;;;;29.45;13.93;;;-1.70;99.90;;;;;;5063600;28;20021;-69
2022/12/14 03:31:20;;;;;;;31.73;14.27;;;-1.70;99.90;;;;;;5055825;28;20040;-69
2022/12/14 03:33:49;;;;;;;28.88;14.25;;;-1.70;99.90;;;;;;5060185;28;20029;-70
2022/12/14 03:36:25;;;;;;;29.05;14.65;;;-1.70;99.90;;;;;;5067001;28;20040;-70
2022/12/14 03:38:56;;;;;;;29.90;14.15;;;-1.80;99.90;;;;;;5068312;28;20083;-70
2022/12/14 03:41:33;;;;;;;30.17;14.23;;;-1.80;99.90;;;;;;5058406;28;20029;-69
2022/12/14 03:44:10;;;;;;;34.00;15.80;;;-1.80;99.90;;;;;;5070405;28;20017;-70
2022/12/14 03:46:39;;;;;;;32.33;15.25;;;-1.80;99.90;;;;;;5060894;28;20088;-69
2022/12/14 03:49:31;;;;;;;28.63;14.45;;;-1.80;99.90;;;;;;5070544;28;20119;-69
2022/12/14 03:52:04;;;;;;;32.00;14.98;;;-1.80;99.90;;;;;;5066283;28;20101;-69
2022/12/14 03:55:02;;;;;;;29.20;14.63;;;-1.80;99.90;;;;;;5060780;28;20086;-69
2022/12/14 03:57:49;;;;;;;27.90;13.77;;;-1.80;99.90;;;;;;5062776;28;20089;-69
2022/12/14 04:00:21;;;;;;;29.48;14.75;;;-1.80;99.90;;;;;;5059355;28;20512;-69
2022/12/14 04:03:00;;;;;;;30.77;14.75;;;-1.90;99.90;;;;;;5071759;28;20056;-70
2022/12/14 04:05:42;;;;;;;32.53;14.75;;;-1.90;99.90;;;;;;5070213;28;20025;-69
2022/12/14 04:08:50;;;;;;;35.42;15.90;;;-1.90;99.90;;;;;;5081614;28;20036;-69
2022/12/14 04:20:18;;;;;;;35.05;16.20;;;-2.00;99.90;;;;;;5042622;28;20029;-70
2022/12/14 04:22:51;;;;;;;36.53;16.75;;;-2.00;99.90;;;;;;5042117;28;20121;-70
2022/12/14 04:31:39;;;;;;;38.70;17.95;;;-2.10;99.90;;;;;;5037750;28;20137;-70
2022/12/14 04:34:41;;;;;;;38.10;17.98;;;-2.10;99.90;;;;;;5032284;28;20038;-70
2022/12/14 04:37:13;;;;;;;34.47;17.63;;;-2.10;99.90;;;;;;5037707;28;20025;-69
2022/12/14 04:39:52;;;;;;;38.72;18.05;;;-2.10;99.90;;;;;;5043815;28;20076;-70
2022/12/14 04:42:24;;;;;;;38.45;17.88;;;-2.10;99.90;;;;;;5031279;28;20041;-69
2022/12/14 04:44:57;;;;;;;38.00;17.23;;;-2.10;99.90;;;;;;5037047;28;20030;-70
2022/12/14 04:47:29;;;;;;;36.58;17.15;;;-2.10;99.90;;;;;;5043391;28;20026;-69
2022/12/14 04:50:08;;;;;;;40.63;18.50;;;-2.10;99.90;;;;;;5076294;28;20032;-69
2022/12/14 04:52:43;;;;;;;61.55;29.20;;;-2.10;99.90;;;;;;5064102;28;20120;-69
2022/12/14 04:55:27;;;;;;;37.97;19.23;;;-2.10;99.90;;;;;;5070824;28;20066;-69
2022/12/14 04:58:15;;;;;;;38.88;18.00;;;-2.10;99.90;;;;;;5072591;28;20047;-69
2022/12/14 05:00:55;;;;;;;36.92;18.52;;;-2.10;99.90;;;;;;5063180;28;20082;-69
2022/12/14 05:03:32;;;;;;;37.60;18.02;;;-2.20;99.90;;;;;;5070215;28;20051;-69
2022/12/14 05:06:03;;;;;;;37.50;18.77;;;-2.20;99.90;;;;;;5072696;28;20453;-69
2022/12/14 05:08:39;;;;;;;41.15;20.17;;;-2.20;99.90;;;;;;5064867;28;20103;-70
2022/12/14 05:11:29;;;;;;;41.70;19.95;;;-2.20;99.90;;;;;;5072459;28;20100;-70
2022/12/14 05:13:54;;;;;;;37.65;18.45;;;-2.20;99.90;;;;;;5071416;28;20033;-70
2022/12/14 05:16:22;;;;;;;36.45;18.73;;;-2.30;99.90;;;;;;5072254;28;20025;-70
2022/12/14 05:18:48;;;;;;;37.72;17.98;;;-2.30;99.90;;;;;;5050161;28;20123;-69
2022/12/14 05:24:01;;;;;;;32.28;16.38;;;-2.40;99.90;;;;;;5061347;28;20030;-69
2022/12/14 05:26:27;;;;;;;36.53;17.25;;;-2.40;99.90;;;;;;5071198;28;20055;-69
2022/12/14 05:28:53;;;;;;;34.50;16.38;;;-2.40;99.90;;;;;;5059584;28;20357;-69
2022/12/14 05:31:19;;;;;;;37.35;17.00;;;-2.50;99.90;;;;;;5072217;28;20099;-70
2022/12/14 05:33:44;;;;;;;32.40;15.20;;;-2.50;99.90;;;;;;5054143;28;20073;-69
2022/12/14 05:36:10;;;;;;;33.92;16.27;;;-2.50;99.90;;;;;;5061276;28;20029;-70
2022/12/14 05:38:36;;;;;;;35.53;16.17;;;-2.50;99.90;;;;;;5057796;28;20549;-69
2022/12/14 05:41:01;;;;;;;33.22;15.90;;;-2.50;99.90;;;;;;5065116;28;20119;-69
2022/12/14 05:43:27;;;;;;;34.33;15.77;;;-2.60;99.90;;;;;;5043314;28;20053;-70
2022/12/14 05:46:03;;;;;;;32.47;15.63;;;-2.60;99.90;;;;;;5062499;28;20576;-70
2022/12/14 05:48:30;;;;;;;34.15;15.93;;;-2.60;99.90;;;;;;5067272;28;20540;-70
2022/12/14 05:51:07;;;;;;;39.25;16.05;;;-2.70;99.90;;;;;;5053999;28;20475;-71
2022/12/14 05:53:37;;;;;;;30.58;15.70;;;-2.70;99.90;;;;;;5057671;28;20056;-70
2022/12/14 05:56:04;;;;;;;33.58;17.00;;;-2.70;99.90;;;;;;5059144;28;20025;-69
2022/12/14 05:58:31;;;;;;;35.97;17.08;;;-2.70;99.90;;;;;;5060601;28;20428;-69
2022/12/14 06:01:01;;;;;;;34.53;15.88;;;-2.70;99.90;;;;;;5060682;28;20108;-69
2022/12/14 06:03:27;;;;;;;32.08;16.20;;;-2.80;99.90;;;;;;5063560;28;20050;-69
2022/12/14 06:05:53;;;;;;;37.45;17.08;;;-2.80;99.90;;;;;;5061265;28;20466;-69
2022/12/14 06:08:20;;;;;;;32.83;16.52;;;-2.80;99.90;;;;;;5068765;28;20024;-68
2022/12/14 06:10:45;;;;;;;36.30;17.23;;;-2.80;99.90;;;;;;5059773;28;20474;-69
2022/12/14 06:13:11;;;;;;;34.22;17.40;;;-2.80;99.90;;;;;;5069020;28;20046;-69
2022/12/14 06:15:37;;;;;;;32.30;16.52;;;-2.80;99.90;;;;;;5070934;28;20036;-69
2022/12/14 06:18:03;;;;;;;33.22;16.75;;;-2.90;99.90;;;;;;5065412;28;20158;-70
2022/12/14 06:20:29;;;;;;;37.38;17.55;;;-2.90;99.90;;;;;;5074742;28;20078;-68
2022/12/14 06:22:54;;;;;;;35.13;17.40;;;-2.90;99.90;;;;;;5062437;28;20553;-69
2022/12/14 06:25:20;;;;;;;35.17;17.25;;;-2.90;99.90;;;;;;5062429;28;20028;-69
2022/12/14 06:27:46;;;;;;;37.30;17.63;;;-2.90;99.90;;;;;;5060130;28;20051;-69
2022/12/14 06:30:12;;;;;;;36.63;17.02;;;-3.00;99.90;;;;;;5064709;28;20451;-68
2022/12/14 06:32:37;;;;;;;37.58;17.75;;;-3.00;99.90;;;;;;5053823;28;20498;-69
2022/12/14 06:35:04;;;;;;;39.35;18.42;;;-3.00;99.90;;;;;;5067021;28;20450;-69
2022/12/14 06:37:30;;;;;;;36.80;18.48;;;-3.10;99.90;;;;;;5059614;28;20044;-69
2022/12/14 06:39:56;;;;;;;37.15;17.85;;;-3.00;99.90;;;;;;5066274;28;20074;-70
2022/12/14 06:42:22;;;;;;;37.63;17.85;;;-3.10;99.90;;;;;;5043215;28;20021;-69
2022/12/14 06:44:48;;;;;;;38.50;18.25;;;-3.10;99.90;;;;;;5063196;28;20028;-69
2022/12/14 06:47:13;;;;;;;35.25;17.75;;;-3.20;99.90;;;;;;5070323;28;20441;-69
2022/12/14 06:49:42;;;;;;;36.35;18.17;;;-3.20;99.90;;;;;;5061417;28;20047;-69
2022/12/14 06:52:09;;;;;;;42.55;19.13;;;-3.20;99.90;;;;;;5066949;28;20040;-69
2022/12/14 06:54:34;;;;;;;40.58;18.83;;;-3.20;99.90;;;;;;5066883;28;20027;-69
2022/12/14 06:57:00;;;;;;;37.75;18.75;;;-3.20;99.90;;;;;;5069932;28;20020;-69
2022/12/14 06:59:26;;;;;;;36.40;17.73;;;-3.20;99.90;;;;;;5062116;28;20025;-70
2022/12/14 07:01:52;;;;;;;36.35;17.08;;;-3.20;99.90;;;;;;5054624;28;20016;-69
2022/12/14 07:04:20;;;;;;;36.83;18.00;;;-3.20;99.90;;;;;;5069965;28;20021;-69
2022/12/14 07:06:45;;;;;;;34.70;16.10;;;-3.20;99.90;;;;;;5070070;28;20466;-69
2022/12/14 07:09:13;;;;;;;35.38;16.83;;;-3.30;99.90;;;;;;5070052;28;20054;-69
2022/12/14 07:11:39;;;;;;;35.15;16.83;;;-3.30;99.90;;;;;;5065967;28;20098;-70
2022/12/14 07:14:06;;;;;;;37.90;16.60;;;-3.40;99.90;;;;;;5069681;28;20025;-69
2022/12/14 07:16:33;;;;;;;33.50;15.93;;;-3.40;99.90;;;;;;5064795;28;20017;-70
2022/12/14 07:19:00;;;;;;;36.15;16.83;;;-3.40;99.90;;;;;;5059075;28;20013;-70
2022/12/14 07:21:26;;;;;;;34.55;16.70;;;-3.50;99.90;;;;;;5073771;28;20025;-70
2022/12/14 07:23:52;;;;;;;34.22;15.85;;;-3.60;99.90;;;;;;5062022;28;20476;-70
2022/12/14 07:26:21;;;;;;;34.72;15.60;;;-3.60;99.90;;;;;;5061848;28;20060;-69
2022/12/14 07:28:47;;;;;;;37.78;15.82;;;-3.60;99.90;;;;;;5072115;28;20040;-69
2022/12/14 07:31:19;;;;;;;33.30;15.85;;;-3.60;99.90;;;;;;5064485;28;20057;-69
2022/12/14 07:33:44;;;;;;;33.88;15.95;;;-3.60;99.90;;;;;;5069406;28;20114;-69
2022/12/14 07:36:12;;;;;;;33.63;15.00;;;-3.60;99.90;;;;;;5065159;28;20059;-69
2022/12/14 07:38:39;;;;;;;36.47;15.77;;;-3.60;99.90;;;;;;5059703;28;20381;-69
2022/12/14 07:41:07;;;;;;;32.08;15.77;;;-3.60;99.90;;;;;;5073610;28;20025;-69
2022/12/14 07:43:33;;;;;;;33.70;16.05;;;-3.60;99.90;;;;;;5073873;28;20021;-69
2022/12/14 07:46:00;;;;;;;34.92;15.35;;;-3.60;99.90;;;;;;5067988;28;20347;-69
2022/12/14 07:48:27;;;;;;;32.58;15.80;;;-3.60;99.90;;;;;;5066249;28;20025;-69
2022/12/14 07:50:53;;;;;;;36.95;15.48;;;-3.60;99.90;;;;;;5055923;28;20062;-70
2022/12/14 07:53:18;;;;;;;31.48;15.27;;;-3.60;99.90;;;;;;5063226;28;20016;-69
2022/12/14 07:55:44;;;;;;;30.70;15.05;;;-3.60;99.90;;;;;;5070199;28;20082;-69
2022/12/14 07:58:10;;;;;;;33.53;15.68;;;-3.60;99.90;;;;;;5061617;28;20118;-70
2022/12/14 08:00:35;;;;;;;30.77;15.00;;;-3.60;99.90;;;;;;5060444;28;20449;-69
2022/12/14 08:03:01;;;;;;;28.27;14.18;;;-3.70;99.90;;;;;;5062572;28;20040;-69
2022/12/14 08:05:27;;;;;;;31.67;14.48;;;-3.60;99.90;;;;;;5066339;28;20024;-69
2022/12/14 08:07:53;;;;;;;33.53;15.07;;;-3.70;99.90;;;;;;5071379;28;20032;-69
2022/12/14 08:10:19;;;;;;;34.92;15.15;;;-3.70;99.90;;;;;;5061752;28;20021;-69
2022/12/14 08:12:48;;;;;;;29.73;13.90;;;-3.70;99.90;;;;;;5073405;28;20039;-70
2022/12/14 08:15:13;;;;;;;33.72;15.35;;;-3.70;99.90;;;;;;5072778;28;20103;-69
2022/12/14 08:17:39;;;;;;;30.15;15.05;;;-3.70;99.90;;;;;;5073325;28;20029;-69
2022/12/14 08:20:06;;;;;;;32.13;14.95;;;-3.80;99.90;;;;;;5071314;28;20465;-70
2022/12/14 08:22:32;;;;;;;33.70;15.25;;;-3.70;99.90;;;;;;5075015;28;20020;-69
2022/12/14 08:24:58;;;;;;;29.25;14.55;;;-3.70;99.90;;;;;;5073048;28;20537;-70
2022/12/14 08:27:23;;;;;;;34.17;14.35;;;-3.80;99.90;;;;;;5063138;28;20096;-69
2022/12/14 08:29:49;;;;;;;30.73;14.20;;;-3.80;99.90;;;;;;5054794;28;20596;-69
2022/12/14 08:32:15;;;;;;;35.17;15.38;;;-3.80;99.90;;;;;;5061883;28;20024;-69
2022/12/14 08:34:40;;;;;;;30.95;14.65;;;-3.80;99.90;;;;;;5060620;28;20670;-69
2022/12/14 08:37:06;;;;;;;32.80;14.27;;;-3.80;99.90;;;;;;5066598;28;20370;-69
2022/12/14 08:39:33;;;;;;;30.45;15.57;;;-3.80;99.90;;;;;;5060405;28;20036;-69
2022/12/14 08:41:58;;;;;;;30.40;14.48;;;-3.80;99.90;;;;;;5066760;28;20032;-69
2022/12/14 08:44:24;;;;;;;32.65;14.90;;;-3.70;99.90;;;;;;5072948;28;20021;-70
2022/12/14 08:46:50;;;;;;;32.45;15.20;;;-3.70;99.90;;;;;;5067966;28;20143;-70
2022/12/14 08:49:15;;;;;;;30.73;15.20;;;-3.60;99.90;;;;;;5071485;28;20025;-69
2022/12/14 08:51:41;;;;;;;34.28;14.88;;;-3.60;99.90;;;;;;5072764;28;20025;-69
2022/12/14 08:54:07;;;;;;;32.50;15.13;;;-3.60;99.90;;;;;;5066498;28;21461;-69
2022/12/14 08:56:33;;;;;;;29.17;14.88;;;-3.50;99.90;;;;;;5072356;28;20052;-70
2022/12/14 08:58:59;;;;;;;34.35;15.80;;;-3.50;99.90;;;;;;5073000;28;20027;-69
2022/12/14 09:01:27;;;;;;;27.38;13.82;;;-3.50;99.90;;;;;;5072993;28;20028;-70
2022/12/14 09:03:53;;;;;;;31.50;15.45;;;-3.50;99.90;;;;;;5066480;28;20056;-69
2022/12/14 09:06:22;;;;;;;35.10;16.33;;;-3.40;99.90;;;;;;5058581;28;20021;-70
2022/12/14 09:08:48;;;;;;;30.60;15.63;;;-3.40;99.90;;;;;;5052617;28;20494;-70
2022/12/14 09:11:15;;;;;;;35.33;16.80;;;-3.40;99.90;;;;;;5068053;28;20025;-69
2022/12/14 09:13:42;;;;;;;32.10;15.48;;;-3.40;99.90;;;;;;5070440;28;20428;-70
2022/12/14 09:16:13;;;;;;;32.80;16.00;;;-3.30;99.90;;;;;;5072931;28;20457;-70
2022/12/14 09:18:39;;;;;;;33.85;16.42;;;-3.30;99.90;;;;;;5066810;28;20016;-70
2022/12/14 09:21:05;;;;;;;38.38;16.20;;;-3.20;99.90;;;;;;5068233;28;20531;-70
2022/12/14 09:23:33;;;;;;;29.92;15.57;;;-3.20;99.90;;;;;;5058289;28;20059;-70
2022/12/14 09:26:13;;;;;;;30.40;14.70;;;-3.10;99.90;;;;;;5064183;28;20013;-70
2022/12/14 09:28:40;;;;;;;33.72;15.65;;;-3.00;99.90;;;;;;5035793;28;20036;-70
2022/12/14 09:31:09;;;;;;;30.10;14.95;;;-3.00;99.90;;;;;;5072150;28;20052;-70
2022/12/14 09:33:36;;;;;;;35.13;15.43;;;-2.90;99.90;;;;;;5058079;28;20029;-70
2022/12/14 09:36:04;;;;;;;32.55;15.45;;;-2.90;99.90;;;;;;5053389;28;20025;-70
2022/12/14 09:38:32;;;;;;;30.52;15.35;;;-2.80;99.90;;;;;;5070522;28;20025;-70
2022/12/14 09:41:01;;;;;;;29.65;14.88;;;-2.70;99.90;;;;;;5067085;28;20473;-70
2022/12/14 09:43:41;;;;;;;34.58;15.48;;;-2.60;99.90;;;;;;5042116;28;20409;-69
2022/12/14 09:46:29;;;;;;;34.63;14.70;;;-2.60;99.90;;;;;;5064163;28;20025;-70
2022/12/14 09:48:56;;;;;;;29.20;14.57;;;-2.50;99.90;;;;;;5069415;28;20833;-70
2022/12/14 09:51:29;;;;;;;31.27;13.50;;;-2.50;99.90;;;;;;5062794;28;20048;-70
2022/12/14 09:54:02;;;;;;;30.80;13.95;;;-2.40;99.90;;;;;;5076403;28;20111;-70
2022/12/14 09:56:28;;;;;;;25.95;12.85;;;-2.30;99.90;;;;;;5078805;28;20032;-70
2022/12/14 09:58:57;;;;;;;28.67;13.75;;;-2.20;99.90;;;;;;5079265;28;20032;-70
2022/12/14 10:01:52;;;;;;;26.58;13.95;;;-2.20;99.90;;;;;;5066564;28;20020;-69
2022/12/14 10:04:17;;;;;;;26.95;13.48;;;-2.10;99.90;;;;;;5054731;28;20048;-71
2022/12/14 10:06:46;;;;;;;29.77;14.10;;;-2.00;99.90;;;;;;5078442;28;20017;-70
2022/12/14 10:09:24;;;;;;;30.67;13.18;;;-2.00;99.90;;;;;;5072630;28;20057;-70
2022/12/14 10:12:05;;;;;;;24.13;12.25;;;-1.90;99.90;;;;;;5070829;28;20021;-70
2022/12/14 10:14:52;;;;;;;25.95;13.43;;;-1.80;99.90;;;;;;5074298;28;20092;-70
2022/12/14 10:17:42;;;;;;;25.77;13.18;;;-1.80;99.90;;;;;;5079530;28;20080;-71
2022/12/14 10:20:13;;;;;;;27.15;13.35;;;-1.70;99.90;;;;;;5069048;28;20390;-69
2022/12/14 10:22:44;;;;;;;27.05;13.13;;;-1.70;99.90;;;;;;5070111;28;20135;-67
2022/12/14 10:25:17;;;;;;;25.38;13.38;;;-1.60;99.90;;;;;;5069696;28;20083;-68
2022/12/14 10:27:58;;;;;;;35.47;13.73;;;-1.60;99.90;;;;;;5072914;28;20017;-69
2022/12/14 10:30:24;;;;;;;27.20;13.35;;;-1.50;99.90;;;;;;5065476;28;20035;-68
2022/12/14 10:32:52;;;;;;;24.67;12.75;;;-1.40;99.90;;;;;;5073222;28;20092;-69
2022/12/14 10:35:34;;;;;;;25.90;12.32;;;-1.40;99.90;;;;;;5062419;28;20021;-69
2022/12/14 10:38:09;;;;;;;24.20;12.77;;;-1.30;99.90;;;;;;5067089;28;20052;-69
2022/12/14 10:40:37;;;;;;;24.48;12.63;;;-1.20;99.90;;;;;;5073946;28;20088;-69
2022/12/14 10:43:31;;;;;;;26.15;12.57;;;-1.20;99.90;;;;;;5074620;28;20021;-68
2022/12/14 10:45:58;;;;;;;26.10;12.40;;;-1.10;99.90;;;;;;5065711;28;20060;-69
2022/12/14 10:48:48;;;;;;;24.98;12.77;;;-1.10;99.90;;;;;;5060252;28;20017;-68
2022/12/14 10:51:43;;;;;;;22.67;12.10;;;-1.00;99.90;;;;;;5065770;28;20017;-68
2022/12/14 10:54:23;;;;;;;23.80;12.50;;;-0.90;99.90;;;;;;5068852;28;20450;-68
2022/12/14 10:56:49;;;;;;;26.02;12.93;;;-0.80;99.90;;;;;;5072777;28;20033;-68
2022/12/14 10:59:25;;;;;;;23.58;12.57;;;-0.80;99.90;;;;;;5061033;28;20482;-68
2022/12/14 11:02:07;;;;;;;25.63;12.40;;;-0.70;99.90;;;;;;5071890;28;20072;-68
2022/12/14 11:04:43;;;;;;;24.33;12.13;;;-0.70;99.90;;;;;;5075931;28;20017;-68
2022/12/14 11:07:13;;;;;;;24.33;12.73;;;-0.70;99.90;;;;;;5063168;28;20032;-68
2022/12/14 11:09:39;;;;;;;23.45;12.50;;;-0.70;99.90;;;;;;5071688;28;20044;-68
2022/12/14 11:12:24;;;;;;;23.63;12.80;;;-0.60;99.90;;;;;;5056389;28;20021;-68
2022/12/14 11:14:56;;;;;;;23.90;11.80;;;-0.60;99.90;;;;;;5072630;28;20021;-68
2022/12/14 11:17:42;;;;;;;24.65;12.48;;;-0.60;99.90;;;;;;5069469;28;20036;-68
2022/12/14 11:20:09;;;;;;;20.00;11.27;;;-0.50;99.90;;;;;;5065441;28;20025;-69
2022/12/14 11:22:54;;;;;;;25.25;12.38;;;-0.40;99.90;;;;;;5069188;28;20028;-69
2022/12/14 11:25:36;;;;;;;23.92;11.68;;;-0.40;99.90;;;;;;5069922;28;20020;-68
2022/12/14 11:28:25;;;;;;;19.95;11.30;;;-0.30;99.90;;;;;;5067488;28;20535;-68
2022/12/14 11:30:57;;;;;;;20.40;10.95;;;-0.30;99.90;;;;;;5059086;28;20095;-67
2022/12/14 11:33:29;;;;;;;23.00;10.93;;;-0.20;99.90;;;;;;5064506;28;20027;-68
2022/12/14 11:35:55;;;;;;;21.23;10.98;;;-0.10;99.90;;;;;;5065073;28;20445;-68
2022/12/14 11:38:22;;;;;;;18.50;10.70;;;-0.10;99.90;;;;;;5070174;28;20048;-68
2022/12/14 11:40:48;;;;;;;17.88;10.00;;;0.00;99.90;;;;;;5070381;28;20616;-69
2022/12/14 11:43:27;;;;;;;17.63;9.88;;;0.00;99.90;;;;;;5074022;28;20092;-69
2022/12/14 11:45:56;;;;;;;18.85;9.68;;;0.10;99.90;;;;;;5073212;28;20428;-69
2022/12/14 11:48:24;;;;;;;17.98;9.68;;;0.20;99.90;;;;;;5069609;28;20025;-69
2022/12/14 11:51:07;;;;;;;19.30;10.02;;;0.20;99.90;;;;;;5065573;28;20118;-68
2022/12/14 11:53:33;;;;;;;19.00;9.88;;;0.30;99.90;;;;;;5065368;28;20504;-68
2022/12/14 11:56:03;;;;;;;17.42;9.52;;;0.30;99.90;;;;;;5069437;28;20025;-68
2022/12/14 11:58:36;;;;;;;19.50;9.48;;;0.40;99.90;;;;;;5059345;28;20021;-68
2022/12/14 12:01:18;;;;;;;15.45;8.98;;;0.40;99.90;;;;;;5066391;28;20012;-68
2022/12/14 12:03:48;;;;;;;16.08;8.93;;;0.50;99.90;;;;;;5066181;28;20041;-68
2022/12/14 12:06:21;;;;;;;18.10;9.52;;;0.50;99.90;;;;;;5068515;28;20486;-69
2022/12/14 12:09:06;;;;;;;16.83;9.63;;;0.50;99.90;;;;;;5069477;28;20389;-68
2022/12/14 12:11:34;;;;;;;18.10;9.25;;;0.50;99.90;;;;;;5072464;28;20115;-68
2022/12/14 12:14:19;;;;;;;17.85;9.32;;;0.60;99.90;;;;;;5066463;28;20033;-68
2022/12/14 12:16:46;;;;;;;16.92;9.32;;;0.60;99.90;;;;;;5071518;28;20032;-69
2022/12/14 12:19:36;;;;;;;21.45;9.80;;;0.60;99.90;;;;;;5073436;28;20099;-68
2022/12/14 12:22:04;;;;;;;16.20;9.25;;;0.60;99.90;;;;;;5059440;28;20047;-68
2022/12/14 12:24:36;;;;;;;18.23;10.32;;;0.70;99.90;;;;;;5059799;28;20392;-68
2022/12/14 12:27:12;;;;;;;17.50;9.65;;;0.70;99.90;;;;;;5066634;28;20029;-69
2022/12/14 12:29:49;;;;;;;20.83;10.57;;;0.70;99.90;;;;;;5061439;28;20021;-68
2022/12/14 12:32:27;;;;;;;18.20;9.93;;;0.80;99.90;;;;;;5065017;28;20430;-69
2022/12/14 12:35:08;;;;;;;18.55;10.55;;;0.80;99.90;;;;;;5059580;28;20022;-69
2022/12/14 12:37:39;;;;;;;18.98;10.38;;;0.80;99.90;;;;;;5062759;28;20323;-70
2022/12/14 12:40:24;;;;;;;19.67;9.77;;;0.90;99.90;;;;;;5066074;28;20033;-69
2022/12/14 12:42:58;;;;;;;21.48;9.98;;;0.90;99.90;;;;;;5060613;28;20029;-71
2022/12/14 12:45:36;;;;;;;19.02;9.38;;;1.00;99.90;;;;;;5067773;28;20077;-70
2022/12/14 12:48:18;;;;;;;16.30;8.80;;;1.00;99.90;;;;;;5066338;28;20080;-72
2022/12/14 12:50:52;;;;;;;16.20;9.10;;;1.00;99.90;;;;;;5072702;28;20028;-70
2022/12/14 12:53:37;;;;;;;15.70;8.93;;;1.10;99.90;;;;;;5072247;28;20066;-70
2022/12/14 12:56:14;;;;;;;17.60;9.10;;;1.10;99.90;;;;;;5072593;28;20486;-69
2022/12/14 12:58:41;;;;;;;15.93;8.23;;;1.10;99.90;;;;;;5062725;28;20024;-70
2022/12/14 13:01:31;;;;;;;19.35;8.95;;;1.20;99.90;;;;;;5058167;28;20052;-69
2022/12/14 13:04:03;;;;;;;18.50;8.93;;;1.20;99.90;;;;;;5054536;28;20112;-69
2022/12/14 13:06:40;;;;;;;17.73;9.15;;;1.20;99.90;;;;;;5066619;28;20029;-70
2022/12/14 13:09:30;;;;;;;17.33;9.50;;;1.30;99.90;;;;;;5072547;28;20040;-69